Time;durP1;ratioP1;P1;durP2;ratioP2;P2;SDS_P1;SDS_P2;PMS_P1;PMS_P2;Temp;Humidity;BMP_temperature;BMP_pressure;BME280_temperature;BME280_humidity;BME280_pressure;Samples;Min_cycle;Max_cycle;Signal;HPM_P1;HPM_P2
2022/12/11 00:01:31;;;;;;;66.45;35.15;;;;;;;9.97;100.00;97815.72;5072388;28;20008;-42
2022/12/11 00:03:56;;;;;;;69.60;35.20;;;;;;;10.20;99.67;97827.16;5072573;28;20442;-43
2022/12/11 00:06:22;;;;;;;60.72;33.47;;;;;;;10.03;99.69;97809.41;5072285;28;20028;-45
2022/12/11 00:08:54;;;;;;;66.88;35.03;;;;;;;10.26;98.27;97813.69;5072130;28;20020;-45
2022/12/11 00:11:20;;;;;;;69.70;33.63;;;;;;;10.00;98.11;97809.91;5071879;28;20020;-45
2022/12/11 00:13:46;;;;;;;68.10;33.33;;;;;;;9.97;97.54;97763.38;5071753;28;20025;-45
2022/12/11 00:16:11;;;;;;;65.35;33.72;;;;;;;9.69;100.00;97750.25;5071917;28;20481;-44
2022/12/11 00:18:37;;;;;;;65.00;33.67;;;;;;;9.72;99.91;97742.59;5071864;28;20032;-45
2022/12/11 00:21:05;;;;;;;68.32;34.75;;;;;;;9.71;100.00;97735.72;5072122;28;20021;-45
2022/12/11 00:23:31;;;;;;;64.60;34.13;;;;;;;9.85;99.13;97730.81;5071502;28;20035;-45
2022/12/11 00:25:56;;;;;;;64.57;34.78;;;;;;;9.93;98.83;97716.28;5071698;28;20021;-45
2022/12/11 00:28:22;;;;;;;65.97;34.75;;;;;;;9.83;98.71;97694.94;5071955;28;20525;-45
2022/12/11 00:30:48;;;;;;;61.65;34.05;;;;;;;9.56;100.00;97706.31;5071933;28;20067;-47
2022/12/11 00:33:15;;;;;;;62.42;33.88;;;;;;;9.67;100.00;97723.16;5071781;28;20028;-45
2022/12/11 00:35:42;;;;;;;65.70;33.30;;;;;;;9.67;100.00;97755.84;5071866;28;20039;-45
2022/12/11 00:38:12;;;;;;;64.10;33.13;;;;;;;9.47;100.00;97716.53;5071852;28;20131;-44
2022/12/11 00:40:38;;;;;;;70.55;35.67;;;;;;;9.56;100.00;97725.69;5071603;28;20074;-45
2022/12/11 00:43:03;;;;;;;72.18;36.55;;;;;;;9.93;100.00;97738.34;5071769;28;20129;-44
2022/12/11 00:45:28;;;;;;;65.57;34.58;;;;;;;9.81;100.00;97771.41;5071649;28;20033;-43
2022/12/11 00:47:54;;;;;;;65.82;34.35;;;;;;;9.90;100.00;97757.47;5071845;28;20215;-43
2022/12/11 00:50:19;;;;;;;66.38;34.00;;;;;;;9.93;100.00;97753.50;5071771;28;20036;-44
2022/12/11 00:52:45;;;;;;;67.28;35.97;;;;;;;9.97;100.00;97731.47;5070924;28;20020;-43
2022/12/11 00:55:10;;;;;;;65.47;34.95;;;;;;;9.91;100.00;97724.50;5071182;28;20135;-42
2022/12/11 00:57:36;;;;;;;62.08;32.83;;;;;;;9.77;100.00;97758.63;5071303;28;20370;-43
2022/12/11 01:00:05;;;;;;;59.83;31.45;;;;;;;9.84;100.00;97715.13;5071528;28;20025;-45
2022/12/11 01:02:31;;;;;;;;;;;;;;;10.03;100.00;97720.91;5071484;28;20048;-43
2022/12/11 01:04:56;;;;;;;53.85;27.88;;;;;;;9.99;100.00;97720.59;5070918;28;19951;-43
2022/12/11 01:07:22;;;;;;;55.95;27.67;;;;;;;10.07;100.00;97696.28;5070863;28;20021;-44
2022/12/11 01:12:31;;;;;;;49.17;27.08;;;;;;;10.27;100.00;97679.72;5070737;28;20103;-44
2022/12/11 01:14:56;;;;;;;56.78;27.65;;;;;;;10.26;100.00;97674.63;5071159;28;20040;-45
2022/12/11 01:17:21;;;;;;;56.75;28.35;;;;;;;10.55;99.82;97681.31;5070466;28;20055;-44
2022/12/11 01:19:47;;;;;;;52.70;26.98;;;;;;;10.44;99.54;97689.47;5070713;28;20020;-45
2022/12/11 01:22:12;;;;;;;49.63;26.33;;;;;;;10.45;99.63;97691.06;5070866;28;20020;-45
2022/12/11 01:24:38;;;;;;;47.40;26.08;;;;;;;10.66;97.62;97684.88;5070769;28;20029;-44
2022/12/11 01:27:03;;;;;;;50.50;25.77;;;;;;;10.75;97.97;97662.03;5071006;28;20087;-45
2022/12/11 01:29:29;;;;;;;48.95;25.63;;;;;;;10.57;99.76;97668.56;5071102;28;20468;-45
2022/12/11 01:31:54;;;;;;;45.75;25.95;;;;;;;10.52;100.00;97659.75;5070824;28;20024;-44
2022/12/11 01:34:20;;;;;;;45.95;25.13;;;;;;;10.59;99.72;97662.22;5071310;28;20028;-45
2022/12/11 01:36:45;;;;;;;46.03;26.00;;;;;;;10.65;99.38;97666.50;5071458;28;20036;-45
2022/12/11 01:39:11;;;;;;;54.00;25.58;;;;;;;10.67;98.50;97675.03;5071215;28;20024;-44
2022/12/11 01:41:36;;;;;;;47.65;24.95;;;;;;;10.67;98.64;97659.06;5071420;28;20022;-45
2022/12/11 01:44:26;;;;;;;48.15;25.40;;;;;;;10.76;98.14;97636.25;5071348;28;20024;-45
2022/12/11 01:46:52;;;;;;;48.78;24.83;;;;;;;10.79;98.40;97629.63;5070400;28;20013;-44
2022/12/11 01:49:20;;;;;;;49.80;24.63;;;;;;;10.56;99.28;97599.66;5071100;28;20550;-45
2022/12/11 01:51:51;;;;;;;48.10;25.58;;;;;;;10.70;98.92;97587.53;5071580;28;20024;-44
2022/12/11 01:54:20;;;;;;;51.85;26.63;;;;;;;10.75;97.40;97546.84;5071122;28;20024;-44
2022/12/11 01:56:48;;;;;;;54.45;27.15;;;;;;;10.59;98.83;97537.22;5071087;28;20089;-44
2022/12/11 01:59:18;;;;;;;48.70;26.87;;;;;;;10.57;99.50;97521.50;5071544;28;20055;-45
2022/12/11 02:01:55;;;;;;;47.85;24.60;;;;;;;10.32;98.97;97548.72;5071175;28;20012;-44
2022/12/11 02:04:22;;;;;;;49.50;25.65;;;;;;;10.33;99.03;97537.81;5070690;28;20028;-45
2022/12/11 02:06:50;;;;;;;53.65;25.58;;;;;;;10.30;99.20;97548.13;5071243;28;20027;-45
2022/12/11 02:09:30;;;;;;;47.60;24.60;;;;;;;10.19;99.81;97603.09;5071024;28;20118;-44
2022/12/11 02:11:55;;;;;;;50.80;25.13;;;;;;;10.39;99.88;97551.94;5070899;28;20025;-45
2022/12/11 02:14:42;;;;;;;45.78;23.88;;;;;;;10.41;100.00;97538.41;5070885;28;20035;-45
2022/12/11 02:17:15;;;;;;;51.00;24.73;;;;;;;10.68;100.00;97554.25;5070926;28;20067;-46
2022/12/11 02:20:08;;;;;;;44.08;23.35;;;;;;;10.64;99.65;97546.03;5071345;28;20035;-44
2022/12/11 02:22:39;;;;;;;44.72;22.17;;;;;;;10.76;98.95;97565.22;5071118;28;20088;-44
2022/12/11 02:25:20;;;;;;;43.67;23.40;;;;;;;10.80;99.24;97562.06;5070737;28;20111;-46
2022/12/11 02:28:10;;;;;;;44.75;23.35;;;;;;;10.74;98.92;97556.72;5070746;28;20028;-44
2022/12/11 02:30:38;;;;;;;41.60;21.92;;;;;;;10.71;99.26;97556.41;5070847;28;20115;-44
2022/12/11 02:33:06;;;;;;;39.53;22.02;;;;;;;10.60;100.00;97547.56;5070908;28;20031;-44
2022/12/11 02:35:37;;;;;;;47.33;24.13;;;;;;;10.75;100.00;97554.84;5070847;28;20036;-45
2022/12/11 02:38:14;;;;;;;43.40;23.40;;;;;;;10.82;100.00;97551.97;5071350;28;20031;-44
2022/12/11 02:40:41;;;;;;;39.92;22.48;;;;;;;11.01;100.00;97561.09;5070943;28;20181;-44
2022/12/11 02:43:10;;;;;;;42.47;20.70;;;;;;;11.06;100.00;97537.19;5070809;28;20383;-44
2022/12/11 02:45:39;;;;;;;36.77;20.30;;;;;;;11.13;99.38;97531.59;5070915;28;20458;-44
2022/12/11 02:48:06;;;;;;;47.93;19.63;;;;;;;11.11;98.27;97525.75;5070983;28;20479;-44
2022/12/11 02:50:34;;;;;;;39.42;18.25;;;;;;;11.43;97.84;97522.13;5069471;28;20024;-45
2022/12/11 02:53:03;;;;;;;40.40;21.55;;;;;;;11.55;97.61;97517.34;5070747;28;20029;-44
2022/12/11 02:55:31;;;;;;;45.42;20.42;;;;;;;11.41;98.15;97516.25;5070453;28;20024;-44
2022/12/11 02:58:03;;;;;;;39.10;20.27;;;;;;;11.37;98.73;97504.53;5070708;28;20445;-44
2022/12/11 03:00:29;;;;;;;34.42;19.70;;;;;;;11.15;98.59;97508.19;5070693;28;20035;-45
2022/12/11 03:02:56;;;;;;;40.28;20.95;;;;;;;11.15;98.48;97529.47;5070619;28;20021;-44
2022/12/11 03:05:22;;;;;;;34.72;20.30;;;;;;;11.00;98.20;97518.78;5070440;28;20150;-43
2022/12/11 03:07:48;;;;;;;44.15;20.92;;;;;;;11.12;99.07;97538.00;5070787;28;20033;-44
2022/12/11 03:10:20;;;;;;;33.78;18.75;;;;;;;10.96;100.00;97532.59;5070423;28;20058;-44
2022/12/11 03:12:49;;;;;;;36.35;18.90;;;;;;;11.06;100.00;97531.84;5070283;28;20036;-44
2022/12/11 03:15:17;;;;;;;39.47;20.90;;;;;;;11.34;99.64;97508.50;5070039;28;20032;-45
2022/12/11 03:17:58;;;;;;;40.40;19.80;;;;;;;11.20;99.07;97532.16;5072167;28;20118;-44
2022/12/11 03:20:33;;;;;;;38.88;18.30;;;;;;;11.14;100.00;97528.69;5073548;28;20115;-44
2022/12/11 03:23:02;;;;;;;53.83;27.98;;;;;;;11.33;100.00;97537.00;5073602;28;20029;-44
2022/12/11 03:25:45;;;;;;;36.20;19.13;;;;;;;11.59;99.65;97557.56;5073145;28;20510;-44
2022/12/11 03:28:10;;;;;;;36.20;17.92;;;;;;;11.65;99.57;97565.31;5073592;28;20488;-44
2022/12/11 03:30:37;;;;;;;28.77;17.02;;;;;;;11.61;98.67;97555.44;5073502;28;20044;-43
2022/12/11 03:33:11;;;;;;;35.45;18.00;;;;;;;11.83;98.59;97571.22;5073133;28;20518;-45
2022/12/11 03:35:50;;;;;;;34.95;17.75;;;;;;;11.85;96.96;97572.53;5073296;28;20070;-44
2022/12/11 03:38:27;;;;;;;37.92;19.15;;;;;;;11.64;97.18;97565.56;5073227;28;20111;-47
2022/12/11 03:40:57;;;;;;;36.72;18.27;;;;;;;11.52;96.53;97571.94;5072827;28;20071;-45
2022/12/11 03:43:24;;;;;;;80.57;44.08;;;;;;;11.46;96.95;97565.00;5073220;28;20033;-43
2022/12/11 03:45:51;;;;;;;39.72;21.10;;;;;;;11.72;95.70;97570.38;5073223;28;20094;-44
2022/12/11 03:48:19;;;;;;;39.40;19.00;;;;;;;11.51;96.53;97562.34;5072893;28;20032;-45
2022/12/11 03:50:46;;;;;;;40.78;19.00;;;;;;;11.27;97.58;97562.00;5072849;28;20063;-44
2022/12/11 03:53:12;;;;;;;36.03;17.90;;;;;;;11.29;96.92;97557.22;5072792;28;20029;-44
2022/12/11 03:55:39;;;;;;;34.03;18.90;;;;;;;11.31;98.54;97544.44;5072982;28;20109;-45
2022/12/11 03:58:04;;;;;;;35.92;19.88;;;;;;;11.27;97.43;97534.56;5073209;28;20024;-45
2022/12/11 04:00:30;;;;;;;36.72;19.15;;;;;;;11.18;99.00;97538.81;5072701;28;20028;-44
2022/12/11 04:03:15;;;;;;;35.65;18.38;;;;;;;11.00;99.32;97551.50;5072942;28;20176;-45
2022/12/11 04:05:43;;;;;;;38.10;18.88;;;;;;;11.17;99.73;97566.47;5072954;28;20039;-44
2022/12/11 04:08:09;;;;;;;31.92;16.90;;;;;;;11.25;99.20;97553.50;5072858;28;20020;-44
2022/12/11 04:10:34;;;;;;;32.25;16.27;;;;;;;11.37;98.92;97555.91;5073270;28;20032;-45
2022/12/11 04:13:00;;;;;;;32.83;16.95;;;;;;;11.31;98.11;97548.97;5073471;28;20043;-45
2022/12/11 04:15:25;;;;;;;37.00;16.42;;;;;;;11.39;99.10;97556.47;5073049;28;20027;-47
2022/12/11 04:26:08;;;;;;;33.95;15.77;;;;;;;11.45;99.77;97549.28;5073156;28;20036;-44
2022/12/11 04:28:34;;;;;;;32.75;14.60;;;;;;;11.57;98.04;97552.50;5072034;28;20054;-43
2022/12/11 04:31:00;;;;;;;28.75;13.80;;;;;;;11.70;97.34;97538.66;5072897;28;20394;-44
2022/12/11 04:33:25;;;;;;;26.75;13.05;;;;;;;11.86;96.25;97544.00;5072179;28;20487;-44
2022/12/11 04:35:51;;;;;;;23.48;12.05;;;;;;;12.05;95.08;97550.47;5072480;28;20481;-45
2022/12/11 04:38:16;;;;;;;27.42;11.70;;;;;;;12.11;94.06;97546.72;5072318;28;20020;-47
2022/12/11 04:40:42;;;;;;;25.58;12.68;;;;;;;12.06;94.41;97562.72;5072016;28;20375;-44
2022/12/11 04:43:07;;;;;;;26.85;14.48;;;;;;;12.30;92.05;97573.66;5072357;28;20025;-45
2022/12/11 04:45:32;;;;;;;26.08;13.98;;;;;;;12.20;92.46;97567.53;5072119;28;20025;-44
2022/12/11 04:47:58;;;;;;;25.98;14.05;;;;;;;12.12;92.56;97561.66;5072349;28;20021;-45
2022/12/11 04:50:24;;;;;;;28.35;14.40;;;;;;;12.02;93.07;97563.53;5072093;28;20016;-45
2022/12/11 04:52:49;;;;;;;26.23;14.55;;;;;;;12.06;93.22;97581.38;5072546;28;20025;-44
2022/12/11 04:55:15;;;;;;;32.45;15.32;;;;;;;11.96;93.38;97588.59;5072313;28;20093;-45
2022/12/11 04:57:40;;;;;;;27.80;14.77;;;;;;;11.99;92.99;97577.38;5071827;28;20035;-46
2022/12/11 05:00:09;;;;;;;26.15;14.32;;;;;;;11.81;93.73;97592.78;5071918;28;20404;-44
2022/12/11 05:02:37;;;;;;;31.38;15.57;;;;;;;11.55;95.26;97571.41;5072015;28;20016;-44
2022/12/11 05:05:04;;;;;;;31.70;15.63;;;;;;;11.57;94.30;97583.66;5071890;28;20486;-46
2022/12/11 05:07:29;;;;;;;32.63;15.52;;;;;;;11.47;95.24;97593.22;5071839;28;20055;-46
2022/12/11 05:09:55;;;;;;;29.10;15.50;;;;;;;11.52;94.77;97614.56;5072142;28;20101;-44
2022/12/11 05:12:20;;;;;;;32.13;16.05;;;;;;;11.60;94.21;97593.81;5071741;28;20388;-47
2022/12/11 05:14:45;;;;;;;29.73;15.30;;;;;;;11.37;95.87;97605.72;5071767;28;20051;-47
2022/12/11 05:17:11;;;;;;;32.47;14.73;;;;;;;11.47;94.55;97603.88;5071562;28;20059;-47
2022/12/11 05:19:36;;;;;;;28.60;15.40;;;;;;;11.29;95.05;97594.50;5071714;28;20013;-45
2022/12/11 05:22:02;;;;;;;30.83;15.82;;;;;;;11.10;96.15;97606.63;5071907;28;20424;-48
2022/12/11 05:24:27;;;;;;;31.67;15.63;;;;;;;11.10;97.29;97614.63;5071417;28;20020;-47
2022/12/11 05:26:52;;;;;;;30.25;15.95;;;;;;;11.15;96.01;97609.34;5071064;28;20021;-45
2022/12/11 05:29:18;;;;;;;28.30;15.35;;;;;;;11.24;96.12;97594.47;5071031;28;20016;-46
2022/12/11 05:31:43;;;;;;;24.70;14.63;;;;;;;11.21;96.01;97594.97;5070680;28;20400;-47
2022/12/11 05:34:09;;;;;;;28.35;15.75;;;;;;;11.18;95.38;97606.16;5070948;28;20051;-46
2022/12/11 05:36:34;;;;;;;28.25;15.07;;;;;;;11.21;95.40;97615.47;5069949;28;20115;-44
2022/12/11 05:39:00;;;;;;;27.13;15.50;;;;;;;11.06;96.18;97624.19;5070440;28;20103;-45
2022/12/11 05:41:28;;;;;;;29.83;16.38;;;;;;;11.05;96.88;97634.03;5067613;28;20008;-45
2022/12/11 05:43:53;;;;;;;33.83;17.58;;;;;;;11.32;95.58;97641.09;5070867;28;20110;-45
2022/12/11 05:46:27;;;;;;;31.52;18.02;;;;;;;10.95;96.85;97634.78;5071151;28;20020;-42
2022/12/11 05:48:56;;;;;;;36.80;18.20;;;;;;;10.96;95.99;97630.25;5070733;28;20044;-46
2022/12/11 05:51:21;;;;;;;36.78;18.50;;;;;;;11.06;97.82;97627.66;5071098;28;20024;-44
2022/12/11 05:53:50;;;;;;;30.10;17.13;;;;;;;11.15;97.72;97642.06;5071354;28;20389;-44
2022/12/11 05:56:23;;;;;;;35.60;17.75;;;;;;;11.58;96.79;97643.88;5070714;28;20024;-47
2022/12/11 05:58:50;;;;;;;31.38;15.93;;;;;;;11.57;95.41;97651.06;5070309;28;20033;-45
2022/12/11 06:01:27;;;;;;;28.52;14.88;;;;;;;11.63;94.47;97658.03;5070535;28;20075;-47
2022/12/11 06:03:54;;;;;;;27.00;14.80;;;;;;;12.04;92.02;97681.34;5070692;28;20024;-46
2022/12/11 06:06:20;;;;;;;27.73;14.65;;;;;;;12.06;91.19;97680.03;5070332;28;20024;-45
2022/12/11 06:08:49;;;;;;;27.73;13.88;;;;;;;11.39;91.67;97670.16;5070512;28;20035;-45
2022/12/11 06:11:14;;;;;;;27.50;15.13;;;;;;;11.18;92.09;97706.53;5070453;28;20024;-45
2022/12/11 06:13:40;;;;;;;26.92;14.57;;;;;;;11.25;93.01;97699.09;5070447;28;20029;-44
2022/12/11 06:16:06;;;;;;;37.92;20.80;;;;;;;11.13;93.16;97697.44;5070188;28;20062;-46
2022/12/11 06:18:37;;;;;;;35.22;19.13;;;;;;;11.02;95.37;97714.38;5070357;28;20146;-44
2022/12/11 06:21:30;;;;;;;31.33;17.65;;;;;;;11.73;93.73;97707.88;5070352;28;20036;-44
2022/12/11 06:23:57;;;;;;;28.70;15.23;;;;;;;11.31;95.46;97706.09;5069790;28;20037;-44
2022/12/11 06:26:23;;;;;;;28.30;15.77;;;;;;;11.14;94.16;97706.25;5070120;28;20025;-43
2022/12/11 06:28:49;;;;;;;26.25;14.70;;;;;;;11.42;93.50;97702.38;5069931;28;20032;-43
2022/12/11 06:31:15;;;;;;;32.45;17.38;;;;;;;12.22;91.46;97712.88;5069740;28;20033;-44
2022/12/11 06:33:41;;;;;;;27.15;16.15;;;;;;;12.01;91.04;97713.84;5069009;28;20064;-44
2022/12/11 06:36:17;;;;;;;34.13;17.95;;;;;;;11.58;92.30;97715.81;5070017;28;20553;-43
2022/12/11 06:38:43;;;;;;;30.17;16.50;;;;;;;11.27;94.16;97708.44;5070164;28;20040;-45
2022/12/11 06:41:10;;;;;;;28.00;16.10;;;;;;;11.50;94.74;97715.22;5070329;28;20041;-44
2022/12/11 06:43:39;;;;;;;28.30;15.02;;;;;;;11.58;93.89;97707.81;5069975;28;20058;-46
2022/12/11 06:46:11;;;;;;;30.23;15.15;;;;;;;11.68;93.52;97694.53;5069850;28;20242;-48
2022/12/11 06:48:37;;;;;;;28.92;16.65;;;;;;;11.30;94.58;97693.81;5069779;28;20078;-45
2022/12/11 06:51:07;;;;;;;28.40;16.50;;;;;;;11.17;96.49;97695.06;5070927;28;20029;-45
2022/12/11 06:53:32;;;;;;;28.85;15.60;;;;;;;11.39;96.28;97704.78;5075120;28;20020;-47
2022/12/11 06:56:03;;;;;;;29.70;15.82;;;;;;;12.08;93.99;97711.75;5074791;28;20043;-44
2022/12/11 06:58:28;;;;;;;27.33;14.77;;;;;;;12.81;88.94;97714.28;5074245;28;20020;-44
2022/12/11 07:00:53;;;;;;;30.63;15.05;;;;;;;13.23;86.44;97717.69;5074106;28;20091;-44
2022/12/11 07:03:19;;;;;;;37.88;21.08;;;;;;;13.37;84.84;97720.63;5073920;28;20508;-46
2022/12/11 07:05:45;;;;;;;45.10;24.88;;;;;;;13.51;84.56;97723.53;5073701;28;20017;-45
2022/12/11 07:08:10;;;;;;;66.55;31.10;;;;;;;13.77;83.02;97725.06;5073766;28;20024;-44
2022/12/11 07:10:35;;;;;;;30.15;14.70;;;;;;;13.33;84.13;97725.72;5074158;28;20413;-43
2022/12/11 07:13:01;;;;;;;31.02;15.98;;;;;;;12.97;89.76;97735.63;5073550;28;20031;-44
2022/12/11 07:15:26;;;;;;;31.45;14.95;;;;;;;13.74;84.02;97735.50;5073598;28;20017;-45
2022/12/11 07:17:51;;;;;;;31.10;18.40;;;;;;;14.17;82.59;97743.88;5073361;28;20054;-47
2022/12/11 07:20:17;;;;;;;42.20;21.50;;;;;;;13.65;84.72;97737.91;5073617;28;20022;-45
2022/12/11 07:22:43;;;;;;;60.55;30.38;;;;;;;13.06;87.19;97748.16;5073530;28;20485;-46
2022/12/11 07:25:08;;;;;;;65.57;28.20;;;;;;;13.42;85.85;97725.94;5073689;28;20028;-44
2022/12/11 07:27:33;;;;;;;56.65;24.33;;;;;;;13.84;85.22;97727.41;5073489;28;20071;-44
2022/12/11 07:29:59;;;;;;;41.00;20.10;;;;;;;13.40;85.15;97726.25;5073283;28;20083;-45
2022/12/11 07:32:24;;;;;;;34.00;17.67;;;;;;;13.21;86.41;97723.31;5073419;28;20081;-46
2022/12/11 07:34:50;;;;;;;29.08;15.13;;;;;;;13.76;84.10;97722.66;5073294;28;20031;-47
2022/12/11 07:37:15;;;;;;;28.27;14.65;;;;;;;13.41;85.03;97738.53;5073346;28;20054;-44
2022/12/11 07:39:41;;;;;;;28.20;16.60;;;;;;;13.00;87.50;97732.41;5073265;28;20020;-47
2022/12/11 07:42:06;;;;;;;39.53;23.88;;;;;;;13.14;87.90;97738.81;5073221;28;20024;-45
2022/12/11 07:44:31;;;;;;;49.65;29.25;;;;;;;13.59;86.45;97733.66;5071835;28;20025;-45
2022/12/11 07:46:57;;;;;;;55.58;30.80;;;;;;;13.47;86.33;97734.75;5072992;28;20031;-45
2022/12/11 07:49:24;;;;;;;49.05;28.58;;;;;;;13.31;88.52;97725.19;5072891;28;20021;-43
2022/12/11 07:51:49;;;;;;;45.13;24.65;;;;;;;13.73;84.89;97717.84;5072788;28;20024;-45
2022/12/11 07:54:15;;;;;;;46.25;25.77;;;;;;;13.49;86.02;97734.50;5073171;28;20094;-45
2022/12/11 07:56:47;;;;;;;36.90;23.80;;;;;;;13.37;86.83;97736.66;5073189;28;20115;-43
2022/12/11 07:59:13;;;;;;;34.70;21.27;;;;;;;13.96;85.22;97727.13;5073112;28;20028;-44
2022/12/11 08:01:39;;;;;;;162.13;93.03;;;;;;;13.81;85.73;97717.28;5072622;28;20111;-44
2022/12/11 08:04:07;;;;;;;34.85;22.02;;;;;;;13.56;86.11;97735.00;5072034;28;20064;-44
2022/12/11 08:06:36;;;;;;;34.22;19.95;;;;;;;14.29;83.93;97747.00;5072778;28;20055;-44
2022/12/11 08:09:04;;;;;;;36.13;19.38;;;;;;;14.16;83.08;97742.25;5072910;28;20024;-44
2022/12/11 08:11:29;;;;;;;30.77;17.80;;;;;;;13.69;85.91;97747.81;5072661;28;20021;-44
2022/12/11 08:13:55;;;;;;;34.85;19.30;;;;;;;14.07;84.89;97760.78;5072442;28;20095;-45
2022/12/11 08:16:21;;;;;;;49.97;28.65;;;;;;;14.10;85.15;97762.09;5072191;28;20040;-45
2022/12/11 08:18:47;;;;;;;52.28;27.23;;;;;;;13.78;86.62;97764.06;5072262;28;20031;-45
2022/12/11 08:21:22;;;;;;;45.58;25.35;;;;;;;13.89;86.53;97765.63;5072404;28;20016;-44
2022/12/11 08:23:48;;;;;;;47.28;25.92;;;;;;;14.32;84.22;97753.66;5072275;28;20092;-44
2022/12/11 08:26:20;;;;;;;49.67;28.88;;;;;;;14.11;85.06;97745.78;5072558;28;20035;-45
2022/12/11 08:28:45;;;;;;;51.92;27.55;;;;;;;14.20;85.97;97741.44;5072575;28;20024;-43
2022/12/11 08:31:13;;;;;;;49.63;29.15;;;;;;;14.81;83.23;97734.13;5072309;28;20039;-46
2022/12/11 08:33:40;;;;;;;58.55;30.67;;;;;;;14.80;82.50;97730.66;5071854;28;20076;-43
2022/12/11 08:36:08;;;;;;;43.05;26.10;;;;;;;14.47;83.48;97730.31;5071948;28;20023;-43
2022/12/11 08:38:34;;;;;;;43.95;24.63;;;;;;;15.37;80.97;97735.50;5072031;28;20420;-45
2022/12/11 08:41:14;;;;;;;43.45;24.63;;;;;;;15.35;79.90;97725.06;5071993;28;20028;-45
2022/12/11 08:43:40;;;;;;;;;;;;;;;15.09;80.35;97716.47;5072084;28;20021;-45
2022/12/11 08:46:06;;;;;;;30.58;17.65;;;;;;;15.67;79.67;97730.88;5071637;28;19916;-44
2022/12/11 08:48:36;;;;;;;33.20;16.95;;;;;;;16.10;75.82;97739.00;5071760;28;20083;-43
2022/12/11 08:51:04;;;;;;;25.25;15.50;;;;;;;15.63;79.12;97725.31;5070843;28;20021;-44
2022/12/11 08:53:31;;;;;;;29.38;15.77;;;;;;;15.83;80.25;97738.50;5071562;28;20453;-44
2022/12/11 08:56:08;;;;;;;27.23;15.57;;;;;;;16.23;76.70;97749.03;5071537;28;20031;-44
2022/12/11 08:58:34;;;;;;;26.52;15.40;;;;;;;16.07;76.70;97758.34;5071300;28;20388;-43
2022/12/11 09:01:08;;;;;;;27.13;14.38;;;;;;;16.25;77.28;97767.53;5071352;28;20024;-44
2022/12/11 09:03:35;;;;;;;28.77;12.32;;;;;;;16.74;75.51;97788.59;5071655;28;20024;-45
2022/12/11 09:06:06;;;;;;;23.55;13.57;;;;;;;16.50;77.00;97790.53;5071642;28;20016;-46
2022/12/11 09:08:32;;;;;;;22.65;13.43;;;;;;;16.74;76.18;97783.22;5071303;28;20062;-48
2022/12/11 09:11:05;;;;;;;49.67;21.08;;;;;;;17.46;73.51;97771.34;5071569;28;20099;-44
2022/12/11 09:13:31;;;;;;;31.83;16.90;;;;;;;17.04;74.56;97777.69;5070841;28;20028;-43
2022/12/11 09:15:56;;;;;;;22.55;11.35;;;;;;;16.99;73.76;97781.25;5069573;28;20027;-43
2022/12/11 09:18:22;;;;;;;21.92;11.23;;;;;;;17.72;71.10;97765.47;5070923;28;20548;-44
2022/12/11 09:20:47;;;;;;;20.13;9.07;;;;;;;17.16;72.13;97761.91;5071029;28;20035;-45
2022/12/11 09:23:13;;;;;;;19.52;8.55;;;;;;;16.66;74.35;97751.66;5071425;28;20017;-44
2022/12/11 09:25:39;;;;;;;12.75;6.63;;;;;;;17.30;70.79;97753.88;5070989;28;20017;-44
2022/12/11 09:28:04;;;;;;;13.10;7.13;;;;;;;17.41;71.38;97744.53;5071243;28;20025;-45
2022/12/11 09:30:30;;;;;;;22.88;11.05;;;;;;;16.92;74.50;97744.00;5071294;28;20031;-45
2022/12/11 09:32:55;;;;;;;23.08;12.82;;;;;;;17.46;72.69;97722.13;5070910;28;20545;-45
2022/12/11 09:35:20;;;;;;;22.15;11.77;;;;;;;17.54;71.78;97730.31;5069985;28;20124;-44
2022/12/11 09:37:46;;;;;;;17.63;9.90;;;;;;;17.14;72.60;97729.94;5070646;28;20366;-45
2022/12/11 09:40:12;;;;;;;17.80;8.13;;;;;;;17.36;72.16;97707.81;5070753;28;20085;-45
2022/12/11 09:42:49;;;;;;;13.93;5.90;;;;;;;17.81;69.10;97701.81;5070951;28;20024;-45
2022/12/11 09:45:15;;;;;;;13.45;5.88;;;;;;;17.28;71.08;97707.69;5070837;28;20032;-44
2022/12/11 09:47:49;;;;;;;11.45;4.57;;;;;;;17.35;70.01;97692.75;5070855;28;20032;-46
2022/12/11 09:50:28;;;;;;;9.07;4.90;;;;;;;17.65;68.50;97685.19;5070883;28;20071;-45
2022/12/11 09:52:59;;;;;;;13.13;5.22;;;;;;;17.68;67.56;97673.81;5070820;28;20078;-44
2022/12/11 09:55:28;;;;;;;10.70;4.65;;;;;;;17.74;68.12;97667.28;5071196;28;20034;-42
2022/12/11 09:58:04;;;;;;;9.88;5.07;;;;;;;18.24;66.85;97679.13;5070661;28;20064;-44
2022/12/11 10:00:32;;;;;;;14.02;6.50;;;;;;;17.86;67.83;97677.53;5070924;28;20036;-43
2022/12/11 10:02:57;;;;;;;59.13;40.22;;;;;;;17.87;69.02;97694.47;5070580;28;20040;-44
2022/12/11 10:05:36;;;;;;;42.72;26.17;;;;;;;18.49;67.81;97702.00;5070595;28;20036;-44
2022/12/11 10:08:32;;;;;;;18.38;9.20;;;;;;;18.12;67.77;97687.75;5070664;28;20025;-44
2022/12/11 10:11:21;;;;;;;17.45;9.55;;;;;;;18.13;69.18;97700.91;5070778;28;20119;-45
2022/12/11 10:13:47;;;;;;;20.73;9.38;;;;;;;18.64;67.51;97695.44;5070881;28;20029;-43
2022/12/11 10:16:30;;;;;;;21.35;10.20;;;;;;;17.96;69.52;97680.00;5069562;28;20055;-42
2022/12/11 10:18:57;;;;;;;20.60;9.55;;;;;;;17.95;69.11;97662.28;5070471;28;20059;-44
2022/12/11 10:21:23;;;;;;;21.65;10.90;;;;;;;18.88;65.81;97670.94;5070488;28;20472;-43
2022/12/11 10:23:57;;;;;;;33.13;12.98;;;;;;;18.33;68.06;97663.84;5070154;28;20215;-43
2022/12/11 10:26:23;;;;;;;19.98;9.63;;;;;;;18.13;68.29;97652.47;5069992;28;20024;-43
2022/12/11 10:28:49;;;;;;;22.20;10.00;;;;;;;18.65;68.02;97653.97;5070525;28;20404;-43
2022/12/11 10:31:18;;;;;;;17.42;8.30;;;;;;;18.52;67.22;97648.34;5070654;28;20024;-42
2022/12/11 10:33:50;;;;;;;;;;;;;;;18.25;68.77;97643.06;5070774;28;20029;-43
2022/12/11 10:36:24;;;;;;;18.67;9.63;;;;;;;18.66;67.39;97628.63;5070118;28;19915;-43
2022/12/11 10:38:49;;;;;;;12.88;5.85;;;;;;;18.85;63.19;97631.94;5070106;28;20025;-43
2022/12/11 10:41:30;;;;;;;14.27;5.68;;;;;;;18.86;61.60;97608.47;5066816;28;20043;-44
2022/12/11 10:43:56;;;;;;;9.20;3.72;;;;;;;18.85;60.10;97604.16;5069865;28;20013;-44
2022/12/11 10:46:24;;;;;;;8.70;4.10;;;;;;;18.84;59.37;97589.91;5070254;28;20113;-44
2022/12/11 10:49:03;;;;;;;11.38;4.40;;;;;;;18.63;59.95;97588.81;5070070;28;20067;-44
2022/12/11 10:51:31;;;;;;;6.35;3.20;;;;;;;19.00;57.12;97590.31;5070409;28;20048;-44
2022/12/11 10:54:07;;;;;;;9.13;3.50;;;;;;;19.34;57.19;97600.44;5070243;28;20086;-42
2022/12/11 10:56:36;;;;;;;8.18;3.40;;;;;;;18.99;57.68;97596.00;5070109;28;20020;-43
2022/12/11 10:59:02;;;;;;;13.07;3.58;;;;;;;19.28;57.75;97600.88;5069770;28;20028;-43
2022/12/11 11:01:30;;;;;;;9.48;3.00;;;;;;;19.61;55.48;97585.09;5068203;28;20037;-44
2022/12/11 11:04:14;;;;;;;7.85;3.05;;;;;;;19.18;56.20;97590.38;5068316;28;20071;-44
2022/12/11 11:06:40;;;;;;;8.27;2.90;;;;;;;19.39;56.28;97596.00;5068455;28;20120;-45
2022/12/11 11:09:27;;;;;;;7.13;3.10;;;;;;;19.51;56.98;97596.16;5068333;28;20028;-44
2022/12/11 11:11:53;;;;;;;9.02;3.00;;;;;;;19.48;55.86;97600.28;5069506;28;20029;-44
2022/12/11 11:14:21;;;;;;;9.20;3.15;;;;;;;19.72;55.17;97604.47;5069076;28;20432;-45
2022/12/11 11:16:49;;;;;;;13.50;3.88;;;;;;;20.35;54.05;97598.78;5069714;28;20122;-43
2022/12/11 11:19:17;;;;;;;6.30;3.28;;;;;;;19.88;54.33;97610.25;5069725;28;20064;-42
2022/12/11 11:21:49;;;;;;;8.40;3.97;;;;;;;19.92;54.85;97609.28;5069561;28;20055;-45
2022/12/11 11:24:43;;;;;;;13.60;5.70;;;;;;;20.16;54.99;97599.91;5068714;28;20035;-43
2022/12/11 11:27:34;;;;;;;15.15;6.90;;;;;;;19.03;59.13;97589.69;5065305;28;20049;-43
2022/12/11 11:30:03;;;;;;;;;;;;;;;18.91;59.90;97602.94;5069835;28;20480;-44
2022/12/11 11:32:35;;;;;;;13.02;6.50;;;;;;;19.81;57.02;97605.28;5069217;28;20443;-43
2022/12/11 11:35:10;;;;;;;26.90;16.65;;;;;;;19.39;59.13;97604.09;5069293;28;20033;-43
2022/12/11 11:37:36;;;;;;;19.42;12.88;;;;;;;19.39;58.95;97596.00;5069736;28;20032;-42